Latest Weather Observations for Pearce

IDW60801

Issued at 4:43 am WST Wednesday 8 December 2021 (issued every 10 minutes, with the page automatically refreshed every 10 minutes)

About weather observations | Map of weather stations | Latest weather observations for WA | Other Formats
Station Details ID: 009053 Name: PEARCE RAAF Lat: -31.67 Lon: 116.02 Height: 40.0 m
Data from the previous 72 hours. | See also: Recent months at Pearce
Date/Time
WST
Temp
°C
App
Temp
°C
Dew
Point
°C
Rel
Hum
%
Delta-T
°C
Wind Press
QNH
hPa
Press
MSL
hPa
Rain since
9am
mm
Dir  Spd
km/h
Gust
km/h
Spd
kts
Gust
kts
08/04:30am 25.3 22.4 9.6 37 8.6 NE 15 35 8 19 1009.8 1009.6 0.0
08/04:00am 25.2 22.9 9.1 36 8.8 ENE 11 20 6 11 1010.0 1009.8 0.0
08/03:30am 25.2 22.5 9.1 36 8.8 ENE 13 24 7 13 1009.8 1009.6 0.0
08/03:00am 25.0 21.9 8.9 36 8.7 ENE 15 24 8 13 1009.9 1009.7 0.0
08/02:30am 25.1 21.1 8.1 34 9.1 NE 19 28 10 15 1009.6 1009.4 0.0
08/02:00am 25.8 21.8 8.3 33 9.4 NE 19 32 10 17 1009.5 1009.3 0.0
08/01:30am 26.4 23.8 7.9 31 9.9 ESE 11 22 6 12 1009.7 1009.5 0.0
08/01:00am 27.7 24.5 8.6 30 10.5 ENE 15 30 8 16 1009.8 1009.6 0.0
08/12:30am 28.6 24.2 8.8 29 10.9 NE 22 35 12 19 1009.7 1009.5 0.0
08/12:00am 28.8 23.5 8.5 28 11.2 E 26 39 14 21 1009.3 1009.1 0.0
 
Date/Time
WST
Temp
°C
App
Temp
°C
Dew
Point
°C
Rel
Hum
%
Delta-T
°C
Wind Press
QNH
hPa
Press
MSL
hPa
Rain since
9am
mm
Dir  Spd
km/h
Gust
km/h
Spd
kts
Gust
kts
07/11:30pm 29.4 24.1 8.5 27 11.5 E 26 43 14 23 1009.2 1009.0 0.0
07/11:00pm 30.1 23.5 8.5 26 12.0 ENE 33 46 18 25 1008.6 1008.4 0.0
07/10:32pm 30.5 24.2 8.8 26 12.1 ENE 32 52 17 28 1008.6 1008.4 0.0
07/10:30pm 30.5 24.2 8.8 26 12.1 ENE 32 48 17 26 1008.7 1008.5 0.0
07/10:00pm 30.8 25.3 9.1 26 12.2 NE 28 41 15 22 1009.1 1008.9 0.0
07/09:30pm 31.3 26.1 8.9 25 12.5 NE 26 39 14 21 1009.0 1008.8 0.0
07/09:03pm 31.9 26.3 8.8 24 12.9 ENE 28 46 15 25 1008.7 1008.5 0.0
07/09:00pm 32.1 26.6 9.0 24 13.0 ENE 28 43 15 23 1008.7 1008.5 0.0
07/08:30pm 31.8 28.1 9.3 25 12.7 E 19 28 10 15 1008.6 1008.4 0.0
07/08:00pm 31.7 29.2 9.8 26 12.5 E 13 22 7 12 1008.7 1008.5 0.0
07/07:30pm 32.0 29.4 9.5 25 12.8 ESE 13 17 7 9 1008.6 1008.4 0.0
07/07:00pm 33.9 30.3 8.5 21 14.3 NE 17 24 9 13 1008.5 1008.3 0.0
07/06:30pm 34.7 31.1 8.4 20 14.8 NE 17 24 9 13 1008.5 1008.3 0.0
07/06:00pm 35.3 31.3 8.9 20 15.1 NE 20 33 11 18 1008.1 1007.9 0.0
07/05:30pm 35.4 30.1 8.3 19 15.3 NE 26 35 14 19 1007.9 1007.7 0.0
07/05:00pm 35.5 30.2 8.3 19 15.4 NE 26 37 14 20 1008.1 1007.9 0.0
07/04:30pm 35.5 30.0 9.1 20 15.1 NE 28 37 15 20 1008.3 1008.1 0.0
07/04:00pm 35.3 31.1 9.7 21 14.8 NNE 22 37 12 20 1008.8 1008.6 0.0
07/03:30pm 34.7 29.4 8.4 20 14.8 NNE 26 37 14 20 1008.9 1008.7 0.0
07/03:00pm 34.7 28.8 9.2 21 14.6 NE 30 41 16 22 1009.2 1009.0 0.0
07/02:30pm 34.5 29.5 9.7 22 14.3 NE 26 43 14 23 1009.4 1009.2 0.0
07/02:00pm 33.8 28.1 9.8 23 13.8 E 30 41 16 22 1009.9 1009.7 0.0
07/01:30pm 33.7 28.3 10.9 25 13.3 E 30 46 16 25 1010.5 1010.3 0.0
07/01:00pm 32.3 27.5 11.5 28 12.2 ENE 28 43 15 23 1010.7 1010.5 0.0
07/12:45pm 31.6 26.6 10.9 28 12.0 E 28 46 15 25 1010.8 1010.6 0.0
07/12:30pm 30.6 25.0 10.0 28 11.7 E 30 41 16 22 1011.2 1011.1 0.0
07/12:00pm 29.9 23.8 9.9 29 11.3 NE 32 48 17 26 1011.7 1011.6 0.0
07/11:41am 28.8 22.8 10.0 31 10.6 NE 32 50 17 27 1011.9 1011.8 0.0
07/11:30am 28.5 22.3 10.2 32 10.3 NE 33 48 18 26 1012.0 1011.9 0.0
07/11:00am 27.1 20.9 9.5 33 9.7 NE 32 56 17 30 1012.5 1012.4 0.0
07/10:40am 26.9 21.6 9.7 34 9.5 NE 28 48 15 26 1012.7 1012.6 0.0
07/10:30am 26.7 21.8 10.0 35 9.3 NE 26 41 14 22 1012.7 1012.6 0.0
07/10:04am 26.1 20.8 9.9 36 9.0 ENE 28 46 15 25 1012.9 1012.8 0.0
07/10:00am 25.3 19.2 9.6 37 8.6 ENE 32 48 17 26 1012.9 1012.8 0.0
07/09:30am 23.4 17.5 9.0 40 7.7 ENE 30 50 16 27 1013.2 1013.1 0.0
07/09:01am 22.9 17.4 9.3 42 7.3 ENE 28 46 15 25 1013.3 1013.2 0.0
07/09:00am 23.0 17.7 9.8 43 7.2 ENE 28 43 15 23 1013.3 1013.2 0.0
07/08:30am 22.1 16.0 9.6 45 6.7 ENE 32 54 17 29 1013.4 1013.3 0.0
07/08:11am 20.9 13.6 8.9 46 6.4 ENE 37 61 20 33 1013.2 1013.1 0.0
07/08:08am 20.8 13.2 9.1 47 6.2 E 39 63 21 34 1013.3 1013.2 0.0
07/08:00am 20.6 13.0 8.9 47 6.2 E 39 63 21 34 1013.2 1013.1 0.0
07/07:30am 19.5 11.4 8.8 50 5.6 E 41 59 22 32 1012.5 1012.4 0.0
07/07:00am 18.6 10.1 9.1 54 5.0 E 44 63 24 34 1012.5 1012.4 0.0
07/06:33am 17.7 9.6 8.8 56 4.6 E 41 80 22 43 1012.5 1012.4 0.0
07/06:30am 17.5 10.2 8.6 56 4.6 E 37 59 20 32 1012.6 1012.5 0.0
07/06:00am 16.9 10.3 8.6 58 4.3 E 33 57 18 31 1012.7 1012.6 0.0
07/05:30am 16.3 9.9 8.5 60 4.0 E 32 56 17 30 1012.6 1012.5 0.0
07/05:00am 16.1 10.1 8.6 61 3.8 E 30 59 16 32 1013.0 1012.9 0.0
07/04:53am 16.2 10.6 8.7 61 3.8 ESE 28 56 15 30 1012.9 1012.8 0.0
07/04:30am 15.9 10.6 8.6 62 3.7 ESE 26 46 14 25 1013.1 1013.0 0.0
07/04:07am 16.1 10.5 8.6 61 3.8 ESE 28 46 15 25 1012.8 1012.7 0.0
07/04:00am 16.1 11.7 8.8 62 3.7 ESE 22 46 12 25 1012.9 1012.8 0.0
07/03:30am 16.1 10.1 8.8 62 3.7 E 30 52 16 28 1012.5 1012.4 0.0
07/03:00am 16.1 8.4 8.8 62 3.7 E 39 69 21 37 1012.4 1012.3 0.0
07/02:30am 16.2 9.3 8.9 62 3.8 E 35 54 19 29 1012.8 1012.7 0.0
07/02:00am 16.2 9.3 8.7 61 3.8 E 35 56 19 30 1012.8 1012.7 0.0
07/01:30am 16.2 10.6 8.7 61 3.8 ESE 28 52 15 28 1013.0 1012.9 0.0
07/01:02am 16.4 10.8 8.6 60 4.0 ESE 28 46 15 25 1013.0 1012.9 0.0
07/01:00am 16.5 10.9 8.7 60 4.0 ESE 28 44 15 24 1013.0 1012.9 0.0
07/12:30am 16.8 10.8 8.8 59 4.1 ESE 30 52 16 28 1013.1 1013.0 0.0
07/12:00am 17.4 11.1 8.8 57 4.4 ESE 32 54 17 29 1013.2 1013.1 0.0
 
Date/Time
WST
Temp
°C
App
Temp
°C
Dew
Point
°C
Rel
Hum
%
Delta-T
°C
Wind Press
QNH
hPa
Press
MSL
hPa
Rain since
9am
mm
Dir  Spd
km/h
Gust
km/h
Spd
kts
Gust
kts
06/11:30pm 18.4 11.9 8.9 54 5.0 E 33 59 18 32 1012.9 1012.8 0.0
06/11:00pm 19.4 13.1 9.0 51 5.5 E 32 56 17 30 1012.5 1012.4 0.0
06/10:30pm 20.8 12.3 9.1 47 6.2 E 44 76 24 41 1012.3 1012.2 0.0
06/10:00pm 21.9 13.1 9.4 45 6.7 E 46 76 25 41 1011.9 1011.8 0.0
06/09:54pm 22.2 13.9 9.4 44 6.9 E 43 76 23 41 1011.8 1011.7 0.0
06/09:30pm 23.0 16.6 9.4 42 7.4 E 33 57 18 31 1012.0 1011.9 0.0
06/09:00pm 24.0 17.2 9.2 39 8.0 E 35 54 19 29 1011.7 1011.6 0.0
06/08:39pm 24.6 17.4 9.3 38 8.3 ESE 37 56 20 30 1011.4 1011.3 0.0
06/08:30pm 25.1 18.3 9.4 37 8.6 ESE 35 50 19 27 1011.4 1011.3 0.0
06/08:01pm 27.0 20.5 8.9 32 9.9 ESE 33 52 18 28 1011.4 1011.3 0.0
06/08:00pm 27.0 20.7 8.9 32 9.9 ESE 32 46 17 25 1011.4 1011.3 0.0
06/07:52pm 27.3 21.7 8.7 31 10.2 ESE 28 46 15 25 1011.4 1011.3 0.0
06/07:30pm 28.3 23.7 8.1 28 11.0 SE 22 41 12 22 1011.2 1011.1 0.0
06/07:00pm 30.0 24.4 5.3 21 12.9 SE 24 41 13 22 1010.9 1010.7 0.0
06/06:30pm 31.2 25.5 4.9 19 13.8 ESE 24 35 13 19 1010.7 1010.5 0.0
06/06:00pm 31.9 25.9 5.4 19 14.1 ESE 26 37 14 20 1010.5 1010.3 0.0
06/05:30pm 32.6 26.6 5.2 18 14.5 ESE 26 35 14 19 1010.3 1010.1 0.0
06/05:00pm 33.4 27.9 5.9 18 14.8 ESE 24 35 13 19 1010.4 1010.2 0.0
06/04:30pm 33.3 28.5 5.8 18 14.8 SE 20 28 11 15 1010.4 1010.2 0.0
06/04:00pm 32.8 27.7 6.2 19 14.4 SE 22 32 12 17 1010.7 1010.5 0.0
06/03:30pm 32.8 26.8 6.9 20 14.1 SE 28 35 15 19 1011.1 1011.0 0.0
06/03:00pm 32.2 26.7 5.7 19 14.2 SE 24 33 13 18 1011.3 1011.2 0.0
06/02:30pm 32.1 27.0 7.7 22 13.4 SE 24 43 13 23 1011.7 1011.6 0.0
06/02:00pm 31.9 27.0 6.9 21 13.6 SE 22 41 12 22 1011.9 1011.8 0.0
06/01:30pm 31.7 26.1 8.7 24 12.9 SE 28 37 15 20 1012.2 1012.1 0.0
06/01:00pm 31.0 25.7 6.8 22 13.1 ESE 24 39 13 21 1012.7 1012.6 0.0
06/12:30pm 30.5 25.8 7.7 24 12.5 SE 22 43 12 23 1013.1 1013.0 0.0
06/12:00pm 29.2 23.6 7.2 25 11.8 ESE 26 37 14 20 1013.6 1013.5 0.0
06/11:30am 28.5 23.4 7.7 27 11.3 SE 24 35 13 19 1014.0 1013.9 0.0
06/11:00am 27.3 21.7 7.2 28 10.7 ESE 26 37 14 20 1014.4 1014.3 0.0
06/10:30am 26.4 20.9 7.4 30 10.1 ESE 26 37 14 20 1014.7 1014.6 0.0
06/10:00am 25.4 19.5 7.5 32 9.5 ESE 28 41 15 22 1015.0 1014.8 0.0
06/09:30am 23.5 17.3 8.0 37 8.2 SE 30 37 16 20 1015.4 1015.2 0.0
06/09:00am 23.3 17.9 8.2 38 8.0 ESE 26 37 14 20 1015.9 1015.7 0.0
06/08:30am 21.7 15.9 7.9 41 7.2 ENE 28 43 15 23 1016.1 1015.9 0.0
06/08:00am 21.0 14.7 8.9 46 6.4 E 32 41 17 22 1016.2 1016.0 0.0
06/07:48am 20.3 14.4 9.2 49 5.9 E 30 50 16 27 1016.1 1015.9 0.0
06/07:30am 19.7 14.2 9.3 51 5.5 E 28 41 15 22 1016.1 1015.9 0.0
06/07:00am 18.5 13.5 9.6 56 4.7 E 26 43 14 23 1016.1 1015.9 0.0
06/06:30am 17.5 13.0 9.9 61 4.0 E 24 35 13 19 1016.1 1015.9 0.0
06/06:00am 16.8 13.6 10.0 64 3.6 E 17 24 9 13 1016.0 1015.8 0.0
06/05:30am 16.5 12.3 9.9 65 3.5 E 22 32 12 17 1015.8 1015.6 0.0
06/05:00am 16.6 12.1 10.0 65 3.5 ESE 24 35 13 19 1015.1 1014.9 0.0
06/04:30am 16.8 13.5 9.7 63 3.7 ESE 17 28 9 15 1014.8 1014.7 0.0
06/04:00am 17.4 13.2 9.6 60 4.1 ESE 22 35 12 19 1014.6 1014.5 0.0
06/03:30am 18.0 15.3 8.8 55 4.8 SE 13 30 7 16 1014.5 1014.4 0.0
06/03:00am 18.6 14.5 8.6 52 5.2 SE 20 41 11 22 1014.2 1014.1 0.0
06/02:30am 19.2 15.3 9.4 53 5.2 SE 20 37 11 20 1014.2 1014.1 0.0
06/02:00am 19.5 17.0 9.7 53 5.2 SE 13 19 7 10 1014.2 1014.1 0.0
06/01:30am 20.6 16.7 9.5 49 5.9 SE 20 35 11 19 1014.0 1013.9 0.0
06/01:00am 21.4 18.5 11.1 52 5.7 SE 17 28 9 15 1014.0 1013.9 0.0
06/12:30am 22.3 19.0 11.7 51 5.9 SE 20 33 11 18 1014.0 1013.9 0.0
06/12:00am 22.9 22.1 11.6 49 6.3 SE 7 13 4 7 1013.8 1013.7 0.0
 
Date/Time
WST
Temp
°C
App
Temp
°C
Dew
Point
°C
Rel
Hum
%
Delta-T
°C
Wind Press
QNH
hPa
Press
MSL
hPa
Rain since
9am
mm
Dir  Spd
km/h
Gust
km/h
Spd
kts
Gust
kts
05/11:30pm 23.7 20.5 11.1 45 7.0 SE 19 32 10 17 1013.6 1013.5 0.0
05/11:00pm 24.5 21.5 11.8 45 7.2 SE 19 35 10 19 1013.4 1013.3 0.0
05/10:30pm 20.5 19.0 13.0 62 4.3 S 13 19 7 10 1013.4 1013.3 0.0
05/10:00pm 20.5 19.0 13.2 63 4.2 SSE 13 15 7 8 1013.4 1013.3 0.0
05/09:30pm 21.0 19.5 13.2 61 4.5 S 13 17 7 9 1013.1 1013.0 0.0
05/09:00pm 21.0 19.9 13.2 61 4.5 S 11 13 6 7 1012.9 1012.8 0.0
05/08:30pm 22.3 20.9 13.4 57 5.1 SSW 13 19 7 10 1012.9 1012.8 0.0
05/08:00pm 22.9 20.6 13.1 54 5.7 SW 17 20 9 11 1012.7 1012.6 0.0
05/07:30pm 23.9 21.3 11.9 47 6.8 SSW 17 22 9 12 1012.6 1012.5 0.0
05/07:00pm 24.9 21.4 10.8 41 7.9 SSW 20 24 11 13 1012.5 1012.4 0.0
05/06:30pm 26.2 21.6 9.5 35 9.2 SSW 24 33 13 18 1012.4 1012.3 0.0
05/06:00pm 27.7 22.4 8.6 30 10.4 SSW 26 37 14 20 1012.1 1012.0 0.0
05/05:30pm 29.2 22.3 7.2 25 11.8 SSW 33 44 18 24 1011.8 1011.7 0.0
05/05:00pm 30.7 24.0 7.2 23 12.8 SSW 32 39 17 21 1011.6 1011.5 0.0
05/04:30pm 31.5 24.6 7.2 22 13.2 SSW 33 44 18 24 1011.5 1011.4 0.0
05/04:00pm 32.0 25.3 8.3 23 13.2 SSW 33 46 18 25 1011.6 1011.5 0.0
05/03:30pm 32.7 26.7 10.7 26 12.8 SSW 33 46 18 25 1011.6 1011.5 0.0
05/03:00pm 32.5 25.9 9.9 25 12.9 SSW 35 44 19 24 1011.7 1011.6 0.0
05/02:30pm 34.0 27.8 9.9 23 13.9 SSW 33 41 18 22 1011.8 1011.7 0.0
05/02:00pm 34.7 29.6 13.0 27 13.1 SW 32 39 17 21 1011.7 1011.6 0.0
05/01:30pm 35.2 31.0 9.6 21 14.8 S 22 32 12 17 1011.9 1011.8 0.0
05/01:00pm 33.3 29.8 8.7 22 13.9 SSW 17 28 9 15 1012.3 1012.2 0.0
05/12:30pm 32.7 28.7 8.2 22 13.7 SSW 19 30 10 16 1012.5 1012.4 0.0
05/12:00pm 33.0 29.7 9.7 24 13.3 S 17 28 9 15 1012.8 1012.7 0.0
05/11:30am 32.6 29.0 10.0 25 13.0 SW 19 28 10 15 1013.1 1013.0 0.0
05/11:00am 32.1 29.6 9.6 25 12.8 S 13 24 7 13 1013.4 1013.3 0.0
05/10:30am 31.2 29.7 10.5 28 11.9 SSE 9 17 5 9 1013.8 1013.7 0.0
05/10:00am 29.6 28.1 10.7 31 10.8 NE 9 17 5 9 1014.1 1014.0 0.0
05/09:30am 28.6 25.7 9.8 31 10.5 E 15 20 8 11 1014.4 1014.3 0.0
05/09:00am 27.7 25.2 10.9 35 9.5 E 15 19 8 10 1014.7 1014.6 0.0
05/08:30am 26.5 23.9 10.6 37 8.9 E 15 26 8 14 1015.1 1014.9 0.0
05/08:00am 25.0 22.0 10.5 40 8.1 ENE 17 26 9 14 1015.2 1015.0 0.0
05/07:30am 24.1 21.9 10.7 43 7.5 ENE 13 19 7 10 1015.1 1014.9 0.0
05/07:00am 22.2 19.8 10.0 46 6.6 ENE 13 24 7 13 1015.1 1014.9 0.0
05/06:30am 20.7 18.6 9.9 50 5.8 ESE 11 17 6 9 1015.2 1015.0 0.0
05/06:00am 19.7 17.9 9.6 52 5.4 SSE 9 19 5 10 1015.1 1014.9 0.0
05/05:30am 19.3 16.7 9.5 53 5.2 ENE 13 19 7 10 1014.8 1014.7 0.0
05/05:00am 19.4 15.7 9.6 53 5.2 E 19 32 10 17 1014.8 1014.7 0.0

Other formats

Comma delimited format used in spreadsheet applications
http://www.bom.gov.au/fwo/IDW60801/IDW60801.94612.axf

JavaScript Object Notation format (JSON) in row-major order
http://www.bom.gov.au/fwo/IDW60801/IDW60801.94612.json

Data quality

Most of these data are generated automatically and are frequently updated. Quality checks on data are not normally performed. It is possible for incorrect values to appear. Refer to information at About Latest Weather Observations and please check the disclaimer before using these data.